Time;durP1;ratioP1;P1;durP2;ratioP2;P2;SDS_P1;SDS_P2;PMS_P1;PMS_P2;Temp;Humidity;BMP_temperature;BMP_pressure;BME280_temperature;BME280_humidity;BME280_pressure;Samples;Min_cycle;Max_cycle;Signal;HPM_P1;HPM_P2
2022/05/27 00:01:17;;;;;;;30.42;3.97;;;13.30;91.30;;;;;;5074797;28;20025;-92
2022/05/27 00:03:43;;;;;;;7.05;3.90;;;13.30;91.40;;;;;;5074988;28;20021;-92
2022/05/27 00:06:09;;;;;;;6.22;3.55;;;13.20;91.50;;;;;;5074539;28;20021;-92
2022/05/27 00:08:35;;;;;;;5.22;3.65;;;13.20;91.60;;;;;;5074662;28;20390;-92
2022/05/27 00:11:02;;;;;;;4.05;3.20;;;13.20;91.70;;;;;;5074858;28;20028;-91
2022/05/27 00:13:29;;;;;;;7.30;3.42;;;13.20;91.90;;;;;;5074965;28;20020;-92
2022/05/27 00:15:55;;;;;;;6.13;3.58;;;13.20;91.90;;;;;;5074598;28;20115;-92
2022/05/27 00:18:21;;;;;;;5.95;3.55;;;13.20;92.00;;;;;;5074873;28;20060;-92
2022/05/27 00:20:47;;;;;;;5.20;3.13;;;13.20;92.10;;;;;;5074666;28;20024;-92
2022/05/27 00:23:15;;;;;;;8.63;3.63;;;13.20;92.20;;;;;;5075008;28;20118;-91
2022/05/27 00:25:41;;;;;;;5.60;3.67;;;13.20;92.30;;;;;;5074535;28;20032;-91
2022/05/27 00:28:07;;;;;;;5.38;3.72;;;13.20;92.40;;;;;;5074469;28;20062;-91
2022/05/27 00:30:34;;;;;;;6.80;3.75;;;13.20;92.40;;;;;;5074617;28;20028;-91
2022/05/27 00:33:00;;;;;;;5.47;4.10;;;13.20;92.50;;;;;;5074279;28;20035;-91
2022/05/27 00:35:26;;;;;;;6.97;4.90;;;13.20;92.60;;;;;;5073983;28;20025;-91
2022/05/27 00:37:51;;;;;;;7.47;4.55;;;13.30;92.60;;;;;;5074464;28;20409;-91
2022/05/27 00:40:19;;;;;;;5.40;4.28;;;13.30;92.60;;;;;;5073921;28;20032;-91
2022/05/27 00:42:46;;;;;;;5.65;4.00;;;13.30;92.60;;;;;;5074023;28;20082;-92
2022/05/27 00:45:26;;;;;;;6.82;3.63;;;13.30;92.70;;;;;;5074137;28;20027;-93
2022/05/27 00:47:54;;;;;;;5.35;3.47;;;13.30;92.80;;;;;;5073762;28;20071;-91
2022/05/27 00:50:25;;;;;;;7.25;3.90;;;13.30;92.80;;;;;;5074182;28;20483;-92
2022/05/27 00:52:51;;;;;;;5.07;3.40;;;13.30;92.90;;;;;;5073681;28;20071;-92
2022/05/27 00:55:20;;;;;;;4.40;3.25;;;13.30;92.90;;;;;;5074416;28;20021;-91
2022/05/27 00:57:55;;;;;;;4.00;3.40;;;13.30;92.90;;;;;;5073308;28;20459;-91
2022/05/27 01:00:23;;;;;;;4.60;3.20;;;13.30;93.10;;;;;;5073622;28;20047;-91
2022/05/27 01:02:50;;;;;;;4.25;2.92;;;13.20;93.20;;;;;;5073621;28;20020;-92
2022/05/27 01:05:20;;;;;;;10.82;3.88;;;13.20;93.20;;;;;;5073862;28;20020;-92
2022/05/27 01:07:46;;;;;;;4.30;3.50;;;13.20;93.60;;;;;;5073648;28;20020;-92
2022/05/27 01:10:16;;;;;;;6.55;4.20;;;13.20;93.50;;;;;;5073544;28;20082;-92
2022/05/27 01:13:12;;;;;;;4.70;4.03;;;13.10;93.70;;;;;;5073496;28;20028;-92
2022/05/27 01:16:04;;;;;;;4.97;3.92;;;13.10;94.00;;;;;;5073348;28;20025;-92
2022/05/27 01:21:50;;;;;;;5.03;3.33;;;13.20;94.20;;;;;;5075003;28;20059;-92
2022/05/27 01:24:37;;;;;;;6.72;3.53;;;13.20;94.50;;;;;;5073433;28;20021;-91
2022/05/27 01:27:21;;;;;;;5.28;3.22;;;13.20;94.60;;;;;;5073329;28;20042;-92
2022/05/27 01:30:21;;;;;;;7.03;3.17;;;13.20;94.70;;;;;;5073267;28;20028;-93
2022/05/27 01:32:51;;;;;;;6.35;3.72;;;13.40;94.80;;;;;;5073873;28;20093;-93
2022/05/27 01:35:55;;;;;;;4.20;3.17;;;13.50;94.70;;;;;;5073725;28;20075;-95
2022/05/27 01:38:58;;;;;;;5.57;3.00;;;13.70;94.50;;;;;;5074145;28;20119;-91
2022/05/27 01:41:45;;;;;;;5.93;3.00;;;13.90;94.20;;;;;;5073242;28;20027;-93
2022/05/27 01:44:29;;;;;;;5.45;3.20;;;14.10;93.80;;;;;;5073212;28;20038;-92
2022/05/27 01:46:56;;;;;;;6.60;3.08;;;14.30;93.50;;;;;;5073757;28;20021;-92
2022/05/27 01:49:26;;;;;;;3.38;3.08;;;14.40;93.00;;;;;;5073126;28;20074;-92
2022/05/27 01:52:02;;;;;;;4.32;3.03;;;14.60;92.90;;;;;;5073083;28;20024;-95
2022/05/27 01:54:57;;;;;;;7.10;2.95;;;14.60;92.80;;;;;;5073076;28;20486;-91
2022/05/27 01:57:51;;;;;;;8.07;3.10;;;14.60;92.70;;;;;;5073062;28;20029;-91
2022/05/27 02:00:21;;;;;;;6.22;3.10;;;14.60;92.70;;;;;;5062370;28;20028;-93
2022/05/27 02:03:08;;;;;;;4.32;2.80;;;14.60;92.70;;;;;;5073113;28;20466;-91
2022/05/27 02:05:49;;;;;;;3.60;3.10;;;14.50;92.70;;;;;;5072999;28;20031;-90
2022/05/27 02:08:19;;;;;;;4.88;2.90;;;14.50;92.90;;;;;;5073080;28;20036;-89
2022/05/27 02:10:52;;;;;;;4.63;3.05;;;14.50;92.90;;;;;;5075644;28;20024;-92
2022/05/27 02:13:39;;;;;;;4.55;2.58;;;14.50;93.00;;;;;;5076830;28;20031;-90
2022/05/27 02:16:13;;;;;;;3.10;2.80;;;14.50;93.10;;;;;;5077271;28;20031;-92
2022/05/27 02:18:53;;;;;;;4.13;2.97;;;14.40;93.20;;;;;;5077116;28;20027;-93
2022/05/27 02:21:31;;;;;;;5.10;3.05;;;14.30;93.30;;;;;;5076907;28;20028;-90
2022/05/27 02:24:07;;;;;;;5.65;3.00;;;14.30;93.40;;;;;;5076775;28;20028;-93
2022/05/27 02:26:38;;;;;;;6.10;3.05;;;14.20;93.70;;;;;;5076616;28;20024;-91
2022/05/27 02:29:14;;;;;;;4.20;2.90;;;14.20;93.70;;;;;;5076788;28;20025;-93
2022/05/27 02:31:46;;;;;;;5.95;3.15;;;14.20;93.90;;;;;;5076549;28;20167;-92
2022/05/27 02:37:38;;;;;;;5.03;3.05;;;14.10;94.10;;;;;;5077773;28;20536;-92
2022/05/27 02:40:09;;;;;;;6.03;3.00;;;14.10;94.40;;;;;;5045686;28;20082;-91
2022/05/27 02:42:48;;;;;;;3.28;3.00;;;14.10;94.30;;;;;;5076522;28;20047;-92
2022/05/27 02:45:48;;;;;;;4.55;3.10;;;14.10;94.50;;;;;;5076577;28;20447;-90
2022/05/27 02:48:42;;;;;;;6.22;3.15;;;14.10;94.60;;;;;;5076340;28;20414;-93
2022/05/27 02:51:24;;;;;;;5.57;3.15;;;14.10;94.70;;;;;;5039224;28;20056;-94
2022/05/27 02:54:12;;;;;;;3.50;3.20;;;14.10;94.80;;;;;;5076208;28;20030;-92
2022/05/27 02:57:10;;;;;;;6.10;3.00;;;14.20;94.90;;;;;;5076199;28;20074;-93
2022/05/27 02:59:37;;;;;;;4.28;3.10;;;14.30;94.80;;;;;;5076100;28;20021;-93
2022/05/27 03:02:12;;;;;;;6.63;3.30;;;14.50;94.50;;;;;;5075856;28;20020;-93
2022/05/27 03:04:51;;;;;;;6.15;3.38;;;14.50;94.50;;;;;;5075958;28;20107;-94
2022/05/27 03:07:33;;;;;;;3.42;3.00;;;14.60;94.40;;;;;;5075915;28;20029;-92
2022/05/27 03:10:46;;;;;;;3.67;2.90;;;14.60;94.40;;;;;;5076939;28;20020;-90
2022/05/27 03:13:21;;;;;;;9.32;3.20;;;14.70;94.30;;;;;;5018693;28;20491;-91
2022/05/27 03:15:55;;;;;;;3.85;3.35;;;14.70;94.30;;;;;;5035235;28;20025;-94
2022/05/27 03:18:33;;;;;;;4.15;3.00;;;14.80;94.30;;;;;;5050959;28;20040;-94
2022/05/27 03:21:43;;;;;;;3.90;2.97;;;14.80;94.20;;;;;;5075160;28;20028;-91
2022/05/27 03:24:28;;;;;;;3.45;2.70;;;14.90;94.20;;;;;;5075775;28;20155;-94
2022/05/27 03:27:09;;;;;;;7.68;3.20;;;15.00;94.00;;;;;;5076090;28;20028;-92
2022/05/27 03:29:56;;;;;;;4.75;3.15;;;15.00;93.90;;;;;;5075432;28;20021;-91
2022/05/27 03:32:55;;;;;;;4.40;2.95;;;15.10;93.90;;;;;;5075448;28;20025;-95
2022/05/27 03:35:41;;;;;;;4.57;3.00;;;15.10;94.00;;;;;;5075259;28;20103;-93
2022/05/27 03:38:16;;;;;;;4.30;2.85;;;15.10;94.00;;;;;;5075744;28;20115;-93
2022/05/27 03:40:51;;;;;;;5.70;3.20;;;15.10;94.10;;;;;;5075138;28;20029;-91
2022/05/27 03:43:18;;;;;;;3.30;3.00;;;15.10;94.10;;;;;;5075176;28;20040;-95
2022/05/27 03:45:56;;;;;;;5.57;2.92;;;15.10;94.00;;;;;;5075328;28;20025;-91
2022/05/27 03:48:23;;;;;;;3.25;2.95;;;15.20;94.00;;;;;;5076031;28;20090;-92
2022/05/27 03:50:53;;;;;;;9.27;3.25;;;15.20;94.10;;;;;;5075341;28;20482;-95
2022/05/27 03:53:20;;;;;;;6.17;3.03;;;15.20;94.20;;;;;;5075283;28;20075;-93
2022/05/27 03:55:45;;;;;;;3.15;2.72;;;15.30;94.10;;;;;;5075017;28;20052;-92
2022/05/27 03:58:16;;;;;;;4.32;2.75;;;15.30;94.00;;;;;;5075019;28;20083;-91
2022/05/27 04:00:42;;;;;;;5.20;2.70;;;15.40;94.20;;;;;;5074844;28;20048;-92
2022/05/27 04:03:11;;;;;;;3.40;2.90;;;15.40;94.00;;;;;;5075011;28;20035;-92
2022/05/27 04:05:38;;;;;;;4.07;2.85;;;15.50;94.00;;;;;;5074863;28;20123;-90
2022/05/27 04:08:05;;;;;;;12.77;2.90;;;15.70;93.50;;;;;;5075241;28;20028;-93
2022/05/27 04:10:31;;;;;;;6.50;3.05;;;15.80;93.20;;;;;;5074760;28;20474;-92
2022/05/27 04:12:57;;;;;;;3.17;2.70;;;15.90;93.10;;;;;;5075188;28;20051;-92
2022/05/27 04:15:23;;;;;;;5.45;2.88;;;16.00;92.50;;;;;;5074580;28;20020;-92
2022/05/27 04:17:48;;;;;;;5.95;2.80;;;16.20;92.30;;;;;;5074481;28;20021;-93
2022/05/27 04:20:17;;;;;;;4.22;2.40;;;16.20;92.10;;;;;;5074233;28;20471;-94
2022/05/27 04:22:43;;;;;;;4.32;2.60;;;16.30;91.90;;;;;;5074489;28;20031;-94
2022/05/27 04:25:10;;;;;;;3.63;2.80;;;16.30;92.10;;;;;;5074641;28;20024;-92
2022/05/27 04:27:37;;;;;;;4.60;2.80;;;16.30;91.90;;;;;;5075003;28;20025;-93
2022/05/27 04:30:05;;;;;;;5.43;2.78;;;16.20;92.10;;;;;;5074548;28;20070;-91
2022/05/27 04:32:30;;;;;;;6.88;2.90;;;16.10;92.20;;;;;;5073600;28;20422;-95
2022/05/27 04:34:56;;;;;;;4.63;2.80;;;16.00;92.40;;;;;;5076173;28;20017;-92
2022/05/27 04:37:23;;;;;;;3.92;2.60;;;16.10;92.60;;;;;;5074283;28;20503;-91
2022/05/27 04:39:49;;;;;;;3.17;2.53;;;16.20;92.70;;;;;;5074634;28;20021;-93
2022/05/27 04:42:15;;;;;;;2.88;2.30;;;16.30;92.30;;;;;;5074644;28;20028;-90
2022/05/27 04:44:41;;;;;;;8.40;2.75;;;16.40;92.10;;;;;;5073851;28;20089;-91
2022/05/27 04:47:08;;;;;;;6.57;2.70;;;16.60;92.10;;;;;;5073951;28;20396;-93
2022/05/27 04:49:56;;;;;;;5.00;2.78;;;16.70;91.40;;;;;;5073847;28;20044;-93
2022/05/27 04:52:30;;;;;;;2.95;2.75;;;16.90;91.30;;;;;;5073927;28;20052;-90
2022/05/27 04:54:58;;;;;;;4.32;2.55;;;17.00;91.10;;;;;;5074154;28;20107;-93
2022/05/27 04:57:33;;;;;;;3.38;2.72;;;17.00;91.00;;;;;;5073716;28;20043;-90
2022/05/27 04:59:59;;;;;;;4.55;2.70;;;16.90;90.80;;;;;;5073894;28;20119;-93
2022/05/27 05:02:25;;;;;;;6.97;2.83;;;16.80;91.00;;;;;;5074003;28;20028;-92
2022/05/27 05:04:52;;;;;;;4.32;3.03;;;16.80;91.20;;;;;;5073994;28;20039;-91
2022/05/27 05:07:24;;;;;;;3.67;2.70;;;16.80;91.20;;;;;;5073694;28;20498;-93
2022/05/27 05:09:50;;;;;;;3.38;2.50;;;16.80;91.20;;;;;;5073754;28;20387;-94
2022/05/27 05:12:22;;;;;;;3.92;2.50;;;16.80;91.40;;;;;;5073512;28;20056;-91
2022/05/27 05:14:48;;;;;;;8.70;2.97;;;16.90;91.40;;;;;;5073232;28;20025;-93
2022/05/27 05:17:13;;;;;;;4.10;2.70;;;17.00;91.40;;;;;;5073561;28;20493;-93
2022/05/27 05:19:39;;;;;;;4.85;2.92;;;17.20;91.20;;;;;;5073646;28;20205;-91
2022/05/27 05:22:05;;;;;;;3.95;2.67;;;17.40;91.10;;;;;;5073930;28;20028;-93
2022/05/27 05:24:31;;;;;;;4.63;2.55;;;17.40;90.70;;;;;;5075828;28;20094;-94
2022/05/27 05:26:58;;;;;;;4.85;2.78;;;17.40;90.80;;;;;;5074874;28;20056;-96
2022/05/27 05:29:23;;;;;;;4.13;2.38;;;17.50;90.70;;;;;;5073336;28;20020;-95
2022/05/27 05:31:49;;;;;;;4.07;2.65;;;17.50;90.50;;;;;;5073382;28;20021;-95
2022/05/27 05:34:14;;;;;;;3.40;2.83;;;17.50;90.40;;;;;;5073335;28;20017;-93
2022/05/27 05:36:40;;;;;;;5.35;2.78;;;17.50;90.10;;;;;;5073378;28;20352;-92
2022/05/27 18:22:53;;;;;;;5.55;2.60;;;19.40;70.60;;;;;;5031281;28;20433;-85
2022/05/27 18:25:20;;;;;;;3.58;2.53;;;19.10;70.80;;;;;;5030306;28;20029;-85
2022/05/27 18:27:49;;;;;;;6.78;2.60;;;19.10;71.30;;;;;;5028894;28;20022;-86
2022/05/27 18:30:17;;;;;;;6.75;2.40;;;19.00;71.70;;;;;;5029084;28;20026;-86
2022/05/27 18:32:43;;;;;;;27.80;11.07;;;19.10;72.30;;;;;;5029409;28;20029;-85
2022/05/27 18:35:09;;;;;;;9.95;4.65;;;19.10;72.40;;;;;;5030270;28;20076;-86
2022/05/27 18:37:39;;;;;;;4.75;2.90;;;19.10;72.50;;;;;;5029269;28;20018;-86
2022/05/27 18:40:07;;;;;;;5.15;3.33;;;19.10;72.20;;;;;;5027214;28;20025;-86
2022/05/27 18:42:34;;;;;;;5.68;2.58;;;19.20;72.20;;;;;;5030060;28;20076;-86
2022/05/27 18:45:00;;;;;;;5.55;2.90;;;19.20;72.30;;;;;;5028735;28;20028;-86
2022/05/27 18:47:26;;;;;;;5.32;3.03;;;19.20;72.30;;;;;;5026050;28;20100;-86
2022/05/27 18:49:51;;;;;;;5.22;2.88;;;19.30;72.30;;;;;;5026101;28;20033;-83
2022/05/27 18:52:18;;;;;;;4.93;2.60;;;19.30;72.20;;;;;;5028337;28;20026;-86
2022/05/27 18:54:44;;;;;;;5.45;2.50;;;19.40;72.00;;;;;;5028868;28;20026;-84
2022/05/27 18:57:10;;;;;;;4.47;2.72;;;19.50;72.00;;;;;;5028835;28;20037;-84
2022/05/27 18:59:36;;;;;;;5.03;2.50;;;19.50;71.90;;;;;;5028981;28;20075;-81
2022/05/27 19:02:01;;;;;;;4.63;2.40;;;19.60;71.80;;;;;;5030138;28;20029;-84
2022/05/27 19:04:28;;;;;;;4.28;2.35;;;19.70;71.50;;;;;;5028533;28;20021;-84
2022/05/27 19:06:57;;;;;;;5.35;2.75;;;19.70;71.50;;;;;;5029760;28;20039;-84
2022/05/27 19:09:24;;;;;;;2.97;2.53;;;19.70;71.30;;;;;;5028435;28;20022;-84
2022/05/27 19:11:50;;;;;;;3.63;2.45;;;19.70;71.30;;;;;;5028449;28;20034;-84
2022/05/27 19:14:16;;;;;;;5.30;2.70;;;19.70;71.30;;;;;;5030083;28;20034;-85
2022/05/27 19:16:41;;;;;;;7.93;2.95;;;19.70;70.90;;;;;;5029893;28;20028;-85
2022/05/27 19:22:11;;;;;;;6.20;2.83;;;19.60;71.20;;;;;;4986544;28;20105;-84
2022/05/27 19:24:37;;;;;;;3.60;3.05;;;19.60;71.10;;;;;;4972568;28;20521;-85
2022/05/27 19:27:03;;;;;;;6.38;2.80;;;19.60;70.90;;;;;;4996983;28;20061;-85
2022/05/27 19:29:28;;;;;;;5.03;2.78;;;19.50;70.70;;;;;;5027611;28;20093;-85
2022/05/27 19:31:54;;;;;;;10.45;3.13;;;19.50;70.70;;;;;;5028600;28;20488;-86
2022/05/27 19:34:21;;;;;;;5.03;2.58;;;19.40;70.60;;;;;;5015433;28;20077;-85
2022/05/27 19:36:47;;;;;;;3.80;2.40;;;19.40;70.80;;;;;;5015437;28;20037;-85
2022/05/27 19:39:13;;;;;;;6.25;2.60;;;19.50;70.70;;;;;;5016535;28;20033;-85
2022/05/27 19:41:39;;;;;;;2.65;2.40;;;19.40;70.50;;;;;;5015698;28;20026;-86
2022/05/27 19:44:06;;;;;;;2.60;2.20;;;19.50;70.50;;;;;;5015698;28;20025;-85
2022/05/27 19:46:32;;;;;;;6.38;1.95;;;19.50;70.40;;;;;;5015588;28;20028;-85
2022/05/27 19:48:58;;;;;;;4.03;2.10;;;19.60;70.00;;;;;;5015370;28;20483;-85
2022/05/27 19:51:25;;;;;;;2.30;2.10;;;19.60;70.00;;;;;;5015371;28;20026;-85
2022/05/27 19:53:53;;;;;;;3.80;1.75;;;19.60;70.10;;;;;;5015324;28;20026;-85
2022/05/27 19:56:20;;;;;;;7.07;2.20;;;19.60;69.90;;;;;;5014579;28;20026;-85
2022/05/27 20:01:32;;;;;;;2.33;2.13;;;19.50;69.60;;;;;;5016592;28;20418;-86
2022/05/27 20:06:43;;;;;;;4.15;2.10;;;19.40;69.60;;;;;;5016557;28;20037;-85
2022/05/27 20:09:09;;;;;;;5.60;2.42;;;19.30;69.60;;;;;;5014864;28;20021;-86
2022/05/27 20:11:37;;;;;;;2.42;2.10;;;19.30;69.50;;;;;;5014903;28;20026;-86
2022/05/27 20:14:10;;;;;;;9.70;2.45;;;19.30;69.60;;;;;;5014986;28;20476;-85
2022/05/27 20:16:46;;;;;;;2.35;2.00;;;19.20;69.70;;;;;;5014958;28;20079;-85
2022/05/27 20:19:14;;;;;;;6.18;2.03;;;19.20;70.00;;;;;;5014363;28;20025;-86
2022/05/27 20:21:44;;;;;;;6.32;2.60;;;19.10;69.90;;;;;;5014499;28;20093;-86
2022/05/27 20:24:10;;;;;;;5.25;2.40;;;19.10;70.10;;;;;;5013890;28;20048;-85
2022/05/27 20:26:38;;;;;;;4.07;2.20;;;19.10;70.20;;;;;;5012985;28;20037;-86
2022/05/27 20:29:05;;;;;;;3.50;2.13;;;19.10;70.30;;;;;;5012493;28;20022;-86
2022/05/27 20:31:32;;;;;;;5.90;2.30;;;19.00;70.40;;;;;;5013469;28;20022;-86
2022/05/27 20:33:58;;;;;;;3.53;1.83;;;19.00;70.50;;;;;;5012450;28;20060;-84
2022/05/27 20:39:09;;;;;;;7.10;2.17;;;18.90;70.60;;;;;;5015010;28;20029;-86
2022/05/27 20:41:39;;;;;;;4.72;2.22;;;18.90;70.90;;;;;;5013130;28;20529;-85
2022/05/27 20:44:07;;;;;;;3.67;2.00;;;18.80;71.10;;;;;;5007595;28;20021;-85
2022/05/27 20:46:33;;;;;;;3.03;1.90;;;18.80;71.20;;;;;;5012891;28;20026;-85
2022/05/27 20:48:59;;;;;;;3.83;2.20;;;18.80;71.40;;;;;;5013315;28;20026;-85
2022/05/27 20:51:26;;;;;;;2.85;2.17;;;18.70;71.40;;;;;;5012851;28;20507;-85
2022/05/27 20:53:52;;;;;;;2.38;2.17;;;18.70;71.60;;;;;;5029231;28;20376;-85
2022/05/27 20:56:18;;;;;;;4.32;2.47;;;18.70;71.70;;;;;;5012690;28;20030;-86
2022/05/27 20:58:45;;;;;;;5.25;2.50;;;18.60;72.40;;;;;;5011332;28;20480;-86
2022/05/27 21:01:11;;;;;;;3.85;2.00;;;18.60;72.00;;;;;;5012931;28;20464;-86
2022/05/27 21:03:37;;;;;;;3.22;2.53;;;18.60;72.00;;;;;;5012741;28;20022;-85
2022/05/27 21:06:03;;;;;;;9.00;2.30;;;18.50;72.00;;;;;;5012693;28;20018;-86
2022/05/27 21:11:13;;;;;;;3.45;2.22;;;18.50;72.20;;;;;;5014371;28;20036;-85
2022/05/27 21:13:38;;;;;;;3.85;2.13;;;18.50;72.20;;;;;;5013616;28;20109;-85
2022/05/27 21:16:05;;;;;;;3.30;2.20;;;18.50;72.30;;;;;;5012337;28;20458;-85
2022/05/27 21:18:31;;;;;;;3.33;1.90;;;18.50;72.30;;;;;;5013750;28;20026;-85
2022/05/27 21:20:57;;;;;;;6.80;1.90;;;18.60;72.20;;;;;;5010177;28;20108;-85
2022/05/27 21:23:23;;;;;;;3.60;2.20;;;18.60;72.20;;;;;;5012128;28;20029;-85
2022/05/27 21:25:49;;;;;;;3.28;2.00;;;18.60;72.20;;;;;;5010246;28;20048;-85
2022/05/27 21:28:15;;;;;;;2.72;2.05;;;18.60;72.20;;;;;;5013761;28;20022;-85
2022/05/27 21:30:41;;;;;;;2.88;2.00;;;18.60;72.20;;;;;;5013138;28;20053;-85
2022/05/27 21:33:08;;;;;;;4.75;2.25;;;18.60;72.20;;;;;;5013577;28;20480;-85
2022/05/27 21:35:37;;;;;;;2.33;1.98;;;18.70;72.30;;;;;;5012755;28;20029;-85
2022/05/27 21:38:04;;;;;;;5.87;2.37;;;18.70;72.20;;;;;;5013393;28;20134;-84
2022/05/27 21:40:30;;;;;;;4.32;1.88;;;18.80;71.80;;;;;;5012829;28;20160;-85
2022/05/27 21:42:56;;;;;;;5.03;2.10;;;18.90;71.70;;;;;;5012962;28;20046;-85
2022/05/27 21:45:22;;;;;;;2.42;1.80;;;19.00;71.50;;;;;;5013906;28;20030;-85
2022/05/27 21:47:48;;;;;;;3.88;2.05;;;19.10;71.20;;;;;;5013080;28;20025;-84
2022/05/27 21:50:15;;;;;;;2.90;1.95;;;19.20;70.90;;;;;;5013034;28;20046;-84
2022/05/27 21:52:41;;;;;;;5.75;2.60;;;19.40;70.50;;;;;;5012218;28;20387;-83
2022/05/27 21:55:08;;;;;;;12.60;2.83;;;19.20;78.20;;;;;;5012482;28;20033;-86
2022/05/27 21:57:33;;;;;;;2.58;2.15;;;18.60;82.10;;;;;;5012638;28;20022;-83
2022/05/27 22:00:00;;;;;;;3.42;2.53;;;18.10;83.90;;;;;;5012513;28;20534;-84
2022/05/27 22:02:26;;;;;;;4.72;2.25;;;17.70;85.40;;;;;;5012676;28;20038;-83
2022/05/27 22:04:52;;;;;;;2.70;2.47;;;17.30;87.90;;;;;;5012632;28;20052;-84
2022/05/27 22:07:17;;;;;;;3.05;2.40;;;16.90;90.30;;;;;;5013918;28;20101;-85
2022/05/27 22:12:52;;;;;;;4.45;2.95;;;16.40;92.80;;;;;;5013739;28;20092;-83
2022/05/27 22:15:24;;;;;;;5.00;3.43;;;16.10;95.40;;;;;;5012217;28;20080;-86
2022/05/27 22:17:52;;;;;;;3.80;2.85;;;16.00;97.40;;;;;;5012618;28;20025;-84
2022/05/27 22:20:19;;;;;;;3.45;3.13;;;15.70;99.60;;;;;;5012599;28;20084;-84
2022/05/27 22:22:45;;;;;;;3.17;2.88;;;15.70;99.90;;;;;;5012257;28;20050;-84
2022/05/27 22:25:13;;;;;;;3.58;3.00;;;15.70;99.90;;;;;;5012448;28;20484;-84
2022/05/27 22:27:39;;;;;;;5.60;2.80;;;15.70;99.90;;;;;;5012657;28;20026;-83
2022/05/27 22:30:07;;;;;;;3.40;2.92;;;15.60;99.90;;;;;;5012470;28;20567;-84
2022/05/27 22:32:33;;;;;;;3.72;2.80;;;15.70;99.90;;;;;;5012597;28;20053;-83
2022/05/27 22:34:59;;;;;;;4.15;2.50;;;15.60;99.90;;;;;;5012560;28;20156;-83
2022/05/27 22:37:27;;;;;;;2.60;2.30;;;15.50;99.90;;;;;;5012495;28;20030;-84
2022/05/27 22:39:56;;;;;;;2.67;1.83;;;15.50;99.90;;;;;;5011843;28;20497;-83
2022/05/27 22:42:22;;;;;;;2.17;1.30;;;15.40;99.90;;;;;;5011921;28;20468;-83
2022/05/27 22:44:48;;;;;;;0.85;0.85;;;15.30;99.90;;;;;;5012070;28;20044;-83
2022/05/27 22:47:15;;;;;;;3.80;0.80;;;15.20;99.90;;;;;;5013387;28;20041;-83
2022/05/27 22:49:41;;;;;;;1.60;0.63;;;15.00;99.90;;;;;;5011811;28;20476;-83
2022/05/27 22:52:07;;;;;;;0.90;0.63;;;14.90;99.90;;;;;;5012106;28;20033;-85
2022/05/27 22:54:33;;;;;;;1.08;0.98;;;14.70;99.90;;;;;;5012164;28;20022;-83
2022/05/27 22:56:59;;;;;;;1.80;0.80;;;14.50;99.90;;;;;;5011799;28;20487;-82
2022/05/27 22:59:25;;;;;;;0.77;0.77;;;14.40;99.90;;;;;;5011687;28;20123;-83
2022/05/27 23:01:51;;;;;;;1.95;0.90;;;14.30;99.90;;;;;;5012958;28;20431;-83
2022/05/27 23:04:18;;;;;;;1.05;0.82;;;14.20;99.90;;;;;;5011945;28;20029;-83
2022/05/27 23:06:45;;;;;;;1.35;0.90;;;14.30;99.90;;;;;;5012231;28;20030;-82
2022/05/27 23:09:10;;;;;;;0.93;0.75;;;14.20;99.90;;;;;;5014598;28;20018;-83
2022/05/27 23:11:36;;;;;;;0.90;0.73;;;14.20;99.90;;;;;;5015803;28;20072;-83
2022/05/27 23:19:32;;;;;;;3.00;1.15;;;13.90;99.90;;;;;;5017307;28;20558;-83
2022/05/27 23:21:58;;;;;;;0.70;0.70;;;13.80;99.90;;;;;;5016554;28;20082;-82
2022/05/27 23:24:24;;;;;;;4.93;1.00;;;13.80;99.90;;;;;;5015363;28;20476;-83
2022/05/27 23:26:51;;;;;;;1.40;0.90;;;13.80;99.90;;;;;;5015484;28;20483;-84
2022/05/27 23:29:17;;;;;;;0.88;0.88;;;13.70;99.90;;;;;;5014436;28;20032;-83
2022/05/27 23:31:43;;;;;;;1.10;1.00;;;13.60;99.90;;;;;;5015171;28;20476;-83
2022/05/27 23:34:11;;;;;;;1.67;1.00;;;13.60;99.90;;;;;;5015126;28;20586;-82
2022/05/27 23:36:37;;;;;;;1.65;0.80;;;13.60;99.90;;;;;;5016359;28;20084;-83
2022/05/27 23:39:04;;;;;;;1.83;1.05;;;13.50;99.90;;;;;;5014790;28;20030;-83
2022/05/27 23:41:30;;;;;;;0.73;0.73;;;13.50;99.90;;;;;;5015402;28;20510;-83
2022/05/27 23:43:57;;;;;;;1.70;0.90;;;13.50;99.90;;;;;;5015137;28;20026;-83
2022/05/27 23:46:23;;;;;;;5.18;1.02;;;13.50;99.90;;;;;;5014820;28;20034;-83
2022/05/27 23:48:49;;;;;;;0.93;0.88;;;13.40;99.90;;;;;;5015507;28;20095;-84
2022/05/27 23:51:17;;;;;;;0.60;0.60;;;13.50;99.90;;;;;;5015149;28;20468;-83
2022/05/27 23:53:46;;;;;;;0.93;0.80;;;13.50;99.90;;;;;;5014497;28;20091;-83
2022/05/27 23:56:18;;;;;;;1.10;1.00;;;13.50;99.90;;;;;;5014396;28;20030;-83
2022/05/27 23:58:43;;;;;;;1.17;0.60;;;13.50;99.90;;;;;;5014968;28;20026;-83
